Flight Track Log - Related Links

Times and Time Zones

All times are in EDT time to prevent confusion due to time zone crossing. See the ASQ5745 flight status page for this flight to view local times or setup timezone preferences in your user account.

Time Position Orientation Groundspeed Altitude Reporting Facility
EDT Latitude Longitude Course Direction KTS MPH feet Rate Location/Type
Tue 10:17:33 AM 38.9989 -77.4586 North 186 214 2,300  Level Washington Center
Tue 10:18:30 AM 39.0667 -77.4500 North 262 302 5,200 2,868 Climbing Potomac TRACON
Tue 10:19:00 AM 39.1865 -77.4500 North  Level FlightAware Approximate
Tue 10:20:00 AM 39.2708 -77.4500 North  Level FlightAware Approximate
Tue 10:20:35 AM 39.2014 -77.4450 North 264 304 11,000  Level Washington Center
Tue 10:21:00 AM 39.3552 -77.4500 North  Level FlightAware Approximate
Tue 10:21:35 AM 39.2656 -77.4789 338° Northwest 264 304 11,000  Level Washington Center
Tue 10:22:00 AM 39.4396 -77.4500 North  Level FlightAware Approximate
Tue 10:22:36 AM 39.2847 -77.5731 285° West 216 249 11,600  Level Washington Center
Tue 10:23:36 AM 39.3664 -77.5619 North 221 254 14,700 2,636 Climbing Washington Center
Tue 10:25:29 AM 39.5339 -77.4958 17° North 304 350 19,200 2,150 Climbing New York Center
Tue 10:26:29 AM 39.6169 -77.4658 16° North 309 356 20,900 1,537 Climbing New York Center
Tue 10:27:30 AM 39.7072 -77.4556 North 309 356 22,300 1,488 Climbing New York Center
Tue 10:28:30 AM 39.7969 -77.4533 North 315 362 23,900 1,438 Climbing New York Center
Tue 10:29:31 AM 39.8889 -77.4511 North 315 362 25,200 1,339 Climbing New York Center
Tue 10:30:31 AM 39.9786 -77.4489 North 315 362 26,600 915 Climbing New York Center
Tue 10:31:29 AM 40.0725 -77.4469 North 325 374 27,000 202 Climbing New York Center
Tue 10:32:30 AM 40.1606 -77.4419 North 342 394 27,000  Level New York Center
Tue 10:33:30 AM 40.2597 -77.3833 24° Northeast 358 412 27,000  Level New York Center
Tue 10:34:31 AM 40.3633 -77.3197 25° Northeast 385 443 27,000  Level New York Center
Tue 10:35:29 AM 40.4650 -77.2531 27° Northeast 397 457 27,000  Level New York Center
Tue 10:36:29 AM 40.5708 -77.1864 26° Northeast 402 463 27,000  Level New York Center
Tue 10:37:30 AM 40.6764 -77.1197 26° Northeast 414 476 27,000  Level New York Center
Tue 10:38:29 AM 40.7803 -77.0497 27° Northeast 419 482 27,000  Level New York Center
Tue 10:39:30 AM 40.8881 -76.9800 26° Northeast 424 488 27,000  Level New York Center
Tue 10:40:31 AM 40.9958 -76.9128 25° Northeast 424 488 27,000  Level New York Center
Tue 10:41:29 AM 41.1017 -76.8425 27° Northeast 424 488 27,000  Level New York Center
Tue 10:42:30 AM 41.2094 -76.7722 26° Northeast 424 488 27,000  Level New York Center
Tue 10:43:30 AM 41.3169 -76.7017 26° Northeast 424 488 27,000  Level New York Center
Tue 10:44:31 AM 41.4356 -76.6208 27° Northeast 424 488 27,000  Level New York Center
Tue 10:45:32 AM 41.5433 -76.5500 26° Northeast 424 488 27,000  Level New York Center
Tue 10:46:29 AM 41.6528 -76.4789 26° Northeast 429 494 27,000 -384 Level New York Center
Tue 10:48:55 AM 41.9178 -76.3019 26° Northeast 422 486 25,700 -670 Descending Boston Center
Tue 10:49:55 AM 42.0264 -76.2303 26° Northeast 422 486 24,700 -850 Descending Boston Center
Tue 10:50:55 AM 42.1331 -76.1583 27° Northeast 422 486 24,000 -350 Descending Boston Center
Tue 10:51:55 AM 42.2042 -76.0194 55° Northeast 422 486 24,000  Level Boston Center
Tue 10:52:55 AM 42.2572 -75.8597 66° East 437 503 24,000 -200 Level Boston Center
Tue 10:53:55 AM 42.2903 -75.7242 72° East 450 518 23,600 -800 Descending Boston Center
Tue 10:54:55 AM 42.3331 -75.5381 73° East 456 525 22,400 -1,100 Descending Boston Center
Tue 10:55:55 AM 42.3728 -75.3797 71° East 456 525 21,400 -1,050 Descending Boston Center
Tue 10:56:55 AM 42.4144 -75.2186 71° East 451 519 20,300 -1,500 Descending Boston Center
Tue 10:57:55 AM 42.4514 -75.0600 72° East 445 512 18,400 -1,800 Descending Boston Center
Tue 10:58:55 AM 42.4903 -74.9094 71° East 434 499 16,700 -1,900 Descending Boston Center
Tue 10:59:55 AM 42.5250 -74.7503 73° East 418 481 14,600 -2,041 Descending Boston Center
Tue 11:00:32 AM 42.5453 -74.6664 72° East 401 461 13,400 -2,100 Descending Boston Center
Tue 11:00:55 AM 42.5611 -74.6050 71° East 406 467 12,500 -1,663 Descending Boston Center
Tue 11:01:55 AM 42.5761 -74.4644 82° East 391 450 11,100 -1,047 Descending Boston Center
Tue 11:02:21 AM 42.5731 -74.4025 94° East 388 447 11,000 -800 Descending Boston Center
Tue 11:02:55 AM 42.5725 -74.3233 91° East 380 437 10,300 -1,082 Descending Boston Center
Tue 11:03:22 AM 42.5689 -74.2753 96° East 325 374 9,900 -1,300 Descending Boston Center
Tue 11:03:55 AM 42.5681 -74.2078 91° East 329 379 9,000 -2,065 Descending Boston Center
Tue 11:04:55 AM 42.5653 -74.1061 92° East 282 325 6,700 -2,100 Descending Boston Center
Tue 11:05:55 AM 42.5669 -74.0019 89° East 274 315 4,800 -1,850 Descending Boston Center
Tue 11:06:55 AM 42.5928 -73.9208 67° East 263 303 3,000 -1,929 Descending Boston Center
Tue 11:07:19 AM 42.6122 -73.8844 54° Northeast 253 291 2,100 -1,100 Descending Boston Center
Tue 11:07:55 AM 42.6314 -73.8483 54° Northeast 263 303 1,900  Descending Boston Center
Tue 11:08:20 AM 42.6483 -73.8203 51° Northeast 189 217 2,100 480 Climbing Boston Center

Login

Don't have an account? Register now (free) for customized features, flight alerts, and more!